createdAt,value
2023-04-08T00:00:54.245Z,248.14
2023-04-08T00:01:54.358Z,244.36
2023-04-08T00:02:54.417Z,234.63
2023-04-08T00:03:54.419Z,248.64
2023-04-08T00:04:54.375Z,243.55
2023-04-08T00:05:54.384Z,250.00
2023-04-08T00:06:54.453Z,239.20
2023-04-08T00:07:54.427Z,236.78
2023-04-08T00:08:54.441Z,229.07
2023-04-08T00:09:54.484Z,216.89
2023-04-08T00:10:54.541Z,213.96
2023-04-08T00:11:54.536Z,216.42
2023-04-08T00:12:54.591Z,225.69
2023-04-08T00:13:54.579Z,245.88
2023-04-08T00:14:54.612Z,241.12
2023-04-08T00:15:54.630Z,232.07
2023-04-08T00:16:54.674Z,222.46
2023-04-08T00:17:54.792Z,223.20
2023-04-08T00:18:54.715Z,227.90
2023-04-08T00:19:54.753Z,234.17
2023-04-08T00:20:54.770Z,238.05
2023-04-08T00:21:54.801Z,228.32
2023-04-08T00:22:54.825Z,229.00
2023-04-08T00:23:54.859Z,222.66
2023-04-08T00:24:54.889Z,225.34
2023-04-08T00:25:54.917Z,219.33
2023-04-08T00:26:54.950Z,226.30
2023-04-08T00:27:54.979Z,223.84
2023-04-08T00:28:55.018Z,217.81
2023-04-08T00:29:55.052Z,217.59
2023-04-08T00:30:55.156Z,231.02
2023-04-08T00:31:55.129Z,231.02
2023-04-08T00:32:55.190Z,230.41
2023-04-08T00:33:55.165Z,222.72
2023-04-08T00:34:55.201Z,220.65
2023-04-08T00:35:55.289Z,231.10
2023-04-08T00:36:55.269Z,227.26
2023-04-08T00:37:55.313Z,216.62
2023-04-08T00:38:55.316Z,213.88
2023-04-08T00:39:55.354Z,215.41
2023-04-08T00:40:55.365Z,216.03
2023-04-08T00:41:55.416Z,218.08
2023-04-08T00:42:55.437Z,223.40
2023-04-08T00:43:55.475Z,223.97
2023-04-08T00:44:55.516Z,220.97
2023-04-08T00:45:55.530Z,225.39
2023-04-08T00:46:55.547Z,218.66
2023-04-08T00:47:55.577Z,227.47
2023-04-08T00:48:55.601Z,240.09
2023-04-08T00:49:55.620Z,232.63
2023-04-08T00:50:55.665Z,228.79
2023-04-08T00:51:55.695Z,224.78
2023-04-08T00:52:55.716Z,220.97
2023-04-08T00:53:55.729Z,214.12
2023-04-08T00:54:55.774Z,208.69
2023-04-08T00:55:55.801Z,198.98
2023-04-08T00:56:55.838Z,194.79
2023-04-08T00:57:55.853Z,197.15
2023-04-08T00:58:55.894Z,193.87
2023-04-08T00:59:55.933Z,203.19
2023-04-08T01:01:32.486Z,25.00
2023-04-08T01:02:32.572Z,25.00
2023-04-08T01:03:32.505Z,25.00
2023-04-08T01:04:32.562Z,25.00
2023-04-08T01:05:32.431Z,25.00
2023-04-08T01:06:32.415Z,26.10
2023-04-08T01:07:32.409Z,32.15
2023-04-08T01:08:32.419Z,35.70
2023-04-08T01:09:32.386Z,30.91
2023-04-08T01:10:32.380Z,42.25
2023-04-08T01:11:32.399Z,37.61
2023-04-08T01:12:32.390Z,28.49
2023-04-08T01:13:32.372Z,26.80
2023-04-08T01:14:32.374Z,29.24
2023-04-08T01:15:32.387Z,44.92
2023-04-08T01:16:32.351Z,61.43
2023-04-08T01:17:32.390Z,62.26
2023-04-08T01:18:32.334Z,41.18
2023-04-08T01:19:32.328Z,33.98
2023-04-08T01:20:32.350Z,32.35
2023-04-08T01:21:32.333Z,26.31
2023-04-08T01:22:32.314Z,39.38
2023-04-08T01:23:32.322Z,48.60
2023-04-08T01:24:32.297Z,41.82
2023-04-08T01:25:32.469Z,32.99
2023-04-08T01:26:32.316Z,40.44
2023-04-08T01:27:32.312Z,50.12
2023-04-08T01:28:32.289Z,56.64
2023-04-08T01:29:32.265Z,52.13
2023-04-08T01:30:32.261Z,41.37
2023-04-08T01:31:32.425Z,44.78
2023-04-08T01:32:32.384Z,60.40
2023-04-08T01:33:32.374Z,59.79
2023-04-08T01:34:32.407Z,55.61
2023-04-08T01:35:32.453Z,60.09
2023-04-08T01:36:32.489Z,73.18
2023-04-08T01:37:32.520Z,76.84
2023-04-08T01:38:32.529Z,70.53
2023-04-08T01:39:32.557Z,63.57
2023-04-08T01:40:32.596Z,66.67
2023-04-08T01:41:32.628Z,72.15
2023-04-08T01:42:32.636Z,68.91
2023-04-08T01:43:32.677Z,60.33
2023-04-08T01:44:32.706Z,59.48
2023-04-08T01:45:32.831Z,54.15
2023-04-08T01:46:32.776Z,59.01
2023-04-08T01:47:32.879Z,55.16
2023-04-08T01:48:32.829Z,59.78
2023-04-08T01:49:32.839Z,54.37
2023-04-08T01:50:32.869Z,54.70
2023-04-08T01:51:32.937Z,48.35
2023-04-08T01:52:32.936Z,52.63
2023-04-08T01:53:32.964Z,44.37
2023-04-08T01:54:32.990Z,60.13
2023-04-08T01:55:33.017Z,59.98
2023-04-08T01:56:33.042Z,67.11
2023-04-08T01:57:33.076Z,59.54
2023-04-08T01:58:33.105Z,45.26
2023-04-08T01:59:33.158Z,56.83
2023-04-08T02:00:33.174Z,54.18
2023-04-08T02:01:33.327Z,48.19
2023-04-08T02:02:33.409Z,44.21
2023-04-08T02:03:33.378Z,42.93
2023-04-08T02:04:33.351Z,40.77
2023-04-08T02:05:33.312Z,37.57
2023-04-08T02:06:33.348Z,43.48
2023-04-08T02:07:33.382Z,49.72
2023-04-08T02:08:33.405Z,43.23
2023-04-08T02:09:33.440Z,46.91
2023-04-08T02:10:33.478Z,43.14
2023-04-08T02:11:33.497Z,45.88
2023-04-08T02:12:33.544Z,53.34
2023-04-08T02:13:33.539Z,50.75
2023-04-08T02:14:33.564Z,51.50
2023-04-08T02:15:33.632Z,56.97
2023-04-08T02:16:33.643Z,52.41
2023-04-08T02:17:35.740Z,53.96
2023-04-08T02:18:33.682Z,54.26
2023-04-08T02:19:33.710Z,54.48
2023-04-08T02:20:33.764Z,57.70
2023-04-08T02:21:33.776Z,47.02
2023-04-08T02:22:33.819Z,50.62
2023-04-08T02:23:33.833Z,51.84
2023-04-08T02:24:33.889Z,53.21
2023-04-08T02:25:34.038Z,54.33
2023-04-08T02:26:33.949Z,73.39
2023-04-08T02:27:33.965Z,74.79
2023-04-08T02:28:34.000Z,68.91
2023-04-08T02:29:34.038Z,70.57
2023-04-08T02:30:34.086Z,62.67
2023-04-08T02:31:34.181Z,51.27
2023-04-08T02:32:34.137Z,42.30
2023-04-08T02:33:34.145Z,42.41
2023-04-08T02:34:34.184Z,49.37
2023-04-08T02:35:34.341Z,47.17
2023-04-08T02:36:34.278Z,48.85
2023-04-08T02:37:34.309Z,50.26
2023-04-08T02:38:34.351Z,54.07
2023-04-08T02:39:34.389Z,49.43
2023-04-08T02:40:34.422Z,48.97
2023-04-08T02:41:34.458Z,45.35
2023-04-08T02:42:34.491Z,43.53
2023-04-08T02:43:34.542Z,49.05
2023-04-08T02:44:34.565Z,50.05
2023-04-08T02:45:34.616Z,52.53
2023-04-08T02:46:34.621Z,55.96
2023-04-08T02:47:34.698Z,56.99
2023-04-08T02:48:34.702Z,60.85
2023-04-08T02:49:34.738Z,69.60
2023-04-08T02:50:34.783Z,79.29
2023-04-08T02:51:34.820Z,76.65
2023-04-08T02:52:34.862Z,70.15
2023-04-08T02:53:34.905Z,81.10
2023-04-08T02:54:34.941Z,88.07
2023-04-08T02:55:34.976Z,93.78
2023-04-08T02:56:35.001Z,89.32
2023-04-08T02:57:35.034Z,81.64
2023-04-08T02:58:35.065Z,64.89
2023-04-08T02:59:35.120Z,64.19
2023-04-08T03:00:35.159Z,68.11
2023-04-08T03:01:35.338Z,74.22
2023-04-08T03:02:35.413Z,67.61
2023-04-08T03:03:35.303Z,70.94
2023-04-08T03:04:35.272Z,72.78
2023-04-08T03:05:35.322Z,83.13
2023-04-08T03:06:35.358Z,77.76
2023-04-08T03:07:35.377Z,67.42
2023-04-08T03:08:35.416Z,66.60
2023-04-08T03:09:35.450Z,64.78
2023-04-08T03:10:35.467Z,68.43
2023-04-08T03:11:35.522Z,79.06
2023-04-08T03:12:35.559Z,73.15
2023-04-08T03:13:35.577Z,71.35
2023-04-08T03:14:35.608Z,72.93
2023-04-08T03:15:35.637Z,70.22
2023-04-08T03:16:35.692Z,70.68
2023-04-08T03:17:35.723Z,66.36
2023-04-08T03:18:35.751Z,68.61
2023-04-08T03:19:35.789Z,65.81
2023-04-08T03:20:35.832Z,68.87
2023-04-08T03:21:35.843Z,71.47
2023-04-08T03:22:35.899Z,61.89
2023-04-08T03:23:35.926Z,62.94
2023-04-08T03:24:35.973Z,64.20
2023-04-08T03:25:36.010Z,64.24
2023-04-08T03:26:36.055Z,59.93
2023-04-08T03:27:36.105Z,62.00
2023-04-08T03:28:36.126Z,54.75
2023-04-08T03:29:36.159Z,57.89
2023-04-08T03:30:36.211Z,56.80
2023-04-08T03:31:36.241Z,58.28
2023-04-08T03:32:36.332Z,57.47
2023-04-08T03:33:36.313Z,49.46
2023-04-08T03:34:36.365Z,47.86
2023-04-08T03:35:36.405Z,58.00
2023-04-08T03:36:36.421Z,56.09
2023-04-08T03:37:36.478Z,63.47
2023-04-08T03:38:36.507Z,64.36
2023-04-08T03:39:36.531Z,59.71
2023-04-08T03:40:36.579Z,62.65
2023-04-08T03:41:36.614Z,60.77
2023-04-08T03:42:36.675Z,68.39
2023-04-08T03:43:38.017Z,78.63
2023-04-08T03:44:36.720Z,88.00
2023-04-08T03:45:36.789Z,73.22
2023-04-08T03:46:36.809Z,69.15
2023-04-08T03:47:36.839Z,71.48
2023-04-08T03:48:36.881Z,63.12
2023-04-08T03:49:36.954Z,69.62
2023-04-08T03:50:36.963Z,59.38
2023-04-08T03:51:37.005Z,67.00
2023-04-08T03:52:37.040Z,70.67
2023-04-08T03:53:37.068Z,77.51
2023-04-08T03:54:37.108Z,68.87
2023-04-08T03:55:37.152Z,70.36
2023-04-08T03:56:37.178Z,66.55
2023-04-08T03:57:37.227Z,72.74
2023-04-08T03:58:37.292Z,69.27
2023-04-08T03:59:37.294Z,61.00
2023-04-08T04:00:37.353Z,59.84
2023-04-08T04:01:37.377Z,60.63
2023-04-08T04:02:37.473Z,61.90
2023-04-08T04:03:37.595Z,68.83
2023-04-08T04:04:37.522Z,68.29
2023-04-08T04:05:37.517Z,65.53
2023-04-08T04:06:37.569Z,61.33
2023-04-08T04:07:37.958Z,65.33
2023-04-08T04:08:37.639Z,50.03
2023-04-08T04:09:37.726Z,50.85
2023-04-08T04:10:37.720Z,54.42
2023-04-08T04:11:37.761Z,56.32
2023-04-08T04:12:37.796Z,63.11
2023-04-08T04:13:37.841Z,57.24
2023-04-08T04:14:37.857Z,52.62
2023-04-08T04:15:37.904Z,51.51
2023-04-08T04:16:37.936Z,59.86
2023-04-08T04:17:38.028Z,59.74
2023-04-08T04:18:38.096Z,57.95
2023-04-08T04:19:38.045Z,59.78
2023-04-08T04:20:38.103Z,57.67
2023-04-08T04:21:38.137Z,56.48
2023-04-08T04:22:38.184Z,47.27
2023-04-08T04:23:38.206Z,43.47
2023-04-08T04:24:38.273Z,41.75
2023-04-08T04:25:38.289Z,47.29
2023-04-08T04:26:38.344Z,51.40
2023-04-08T04:27:38.381Z,50.11
2023-04-08T04:28:38.449Z,45.22
2023-04-08T04:29:38.480Z,50.91
2023-04-08T04:30:38.563Z,56.13
2023-04-08T04:31:38.722Z,59.61
2023-04-08T04:32:38.628Z,56.13
2023-04-08T04:33:38.667Z,55.18
2023-04-08T04:34:38.667Z,55.97
2023-04-08T04:35:38.771Z,63.75
2023-04-08T04:36:38.749Z,69.10
2023-04-08T04:37:38.802Z,94.14
2023-04-08T04:38:38.841Z,90.35
2023-04-08T04:39:38.893Z,89.05
2023-04-08T04:40:38.919Z,78.80
2023-04-08T04:41:38.949Z,65.27
2023-04-08T04:42:38.993Z,70.86
2023-04-08T04:43:39.027Z,86.22
2023-04-08T04:44:39.082Z,89.06
2023-04-08T04:45:39.132Z,78.14
2023-04-08T04:46:39.215Z,77.16
2023-04-08T04:47:39.274Z,77.70
2023-04-08T04:48:39.265Z,86.75
2023-04-08T04:49:39.314Z,89.84
2023-04-08T04:50:39.355Z,80.91
2023-04-08T04:51:39.398Z,81.53
2023-04-08T04:52:39.455Z,81.39
2023-04-08T04:53:39.498Z,82.79
2023-04-08T04:54:39.535Z,77.70
2023-04-08T04:55:39.560Z,81.67
2023-04-08T04:56:39.629Z,88.21
2023-04-08T04:57:39.672Z,87.24
2023-04-08T04:58:39.700Z,86.04
2023-04-08T04:59:39.747Z,90.51
2023-04-08T05:00:39.769Z,80.93
2023-04-08T05:01:39.893Z,74.47
2023-04-08T05:02:40.110Z,82.93
2023-04-08T05:03:40.004Z,82.43
2023-04-08T05:04:39.965Z,86.07
2023-04-08T05:05:39.984Z,82.92
2023-04-08T05:06:40.047Z,83.39
2023-04-08T05:07:40.103Z,82.71
2023-04-08T05:08:40.114Z,83.35
2023-04-08T05:09:40.162Z,80.10
2023-04-08T05:10:40.208Z,89.06
2023-04-08T05:11:40.245Z,81.24
2023-04-08T05:12:40.298Z,89.80
2023-04-08T05:13:40.347Z,90.20
2023-04-08T05:14:40.380Z,89.11
2023-04-08T05:15:40.529Z,87.09
2023-04-08T05:16:40.715Z,85.18
2023-04-08T05:17:40.611Z,85.31
2023-04-08T05:18:40.568Z,82.11
2023-04-08T05:19:40.598Z,80.65
2023-04-08T05:20:40.649Z,72.07
2023-04-08T05:21:40.684Z,72.62
2023-04-08T05:22:40.735Z,74.74
2023-04-08T05:23:40.770Z,72.77
2023-04-08T05:24:40.815Z,80.02
2023-04-08T05:25:40.860Z,80.30
2023-04-08T05:26:40.916Z,74.78
2023-04-08T05:27:40.955Z,75.28
2023-04-08T05:28:41.012Z,73.25
2023-04-08T05:29:41.032Z,76.02
2023-04-08T05:30:41.080Z,69.21
2023-04-08T05:31:41.132Z,80.17
2023-04-08T05:32:41.196Z,79.65
2023-04-08T05:33:41.226Z,69.83
2023-04-08T05:34:41.270Z,74.28
2023-04-08T05:35:41.344Z,72.15
2023-04-08T05:36:41.355Z,79.29
2023-04-08T05:37:41.422Z,76.37
2023-04-08T05:38:41.437Z,77.71
2023-04-08T05:39:41.473Z,75.08
2023-04-08T05:40:41.526Z,71.51
2023-04-08T05:41:41.569Z,73.29
2023-04-08T05:42:41.662Z,79.02
2023-04-08T05:43:41.660Z,74.39
2023-04-08T05:44:41.717Z,71.82
2023-04-08T05:45:41.725Z,70.78
2023-04-08T05:46:41.800Z,71.04
2023-04-08T05:47:41.879Z,77.26
2023-04-08T05:48:41.863Z,78.66
2023-04-08T05:49:41.890Z,80.37
2023-04-08T05:50:41.941Z,80.52
2023-04-08T05:51:41.973Z,83.67
2023-04-08T05:52:42.038Z,87.78
2023-04-08T05:53:42.064Z,92.31
2023-04-08T05:54:42.098Z,80.86
2023-04-08T05:55:42.148Z,85.25
2023-04-08T05:56:42.169Z,83.84
2023-04-08T05:57:42.250Z,76.44
2023-04-08T05:58:42.249Z,82.86
2023-04-08T05:59:42.305Z,82.71
2023-04-08T06:00:42.342Z,77.17
2023-04-08T06:01:42.438Z,78.36
2023-04-08T06:02:42.524Z,76.84
2023-04-08T06:03:42.593Z,76.74
2023-04-08T06:04:42.635Z,77.11
2023-04-08T06:05:42.569Z,74.96
2023-04-08T06:06:42.567Z,78.22
2023-04-08T06:07:42.614Z,81.96
2023-04-08T06:08:42.623Z,76.90
2023-04-08T06:09:43.822Z,77.40
2023-04-08T06:10:42.796Z,72.04
2023-04-08T06:11:43.065Z,69.86
2023-04-08T06:12:42.900Z,60.22
2023-04-08T06:13:42.884Z,58.74
2023-04-08T06:14:42.908Z,56.75
2023-04-08T06:15:42.954Z,54.80
2023-04-08T06:16:42.991Z,55.48
2023-04-08T06:17:43.072Z,52.48
2023-04-08T06:18:43.014Z,53.82
2023-04-08T06:19:43.097Z,56.85
2023-04-08T06:20:43.125Z,54.12
2023-04-08T06:21:43.116Z,58.00
2023-04-08T06:22:43.170Z,54.62
2023-04-08T06:23:43.150Z,57.01
2023-04-08T06:24:43.305Z,56.71
2023-04-08T06:25:43.222Z,55.49
2023-04-08T06:26:43.252Z,55.68
2023-04-08T06:27:43.245Z,55.42
2023-04-08T06:28:43.282Z,50.97
2023-04-08T06:29:43.392Z,47.63
2023-04-08T06:30:43.319Z,47.33
2023-04-08T06:31:43.346Z,47.14
2023-04-08T06:32:43.364Z,44.06
2023-04-08T06:33:43.353Z,35.63
2023-04-08T06:34:43.387Z,37.49
2023-04-08T06:35:43.420Z,34.22
2023-04-08T06:36:43.402Z,35.49
2023-04-08T06:37:43.403Z,38.46
2023-04-08T06:38:43.405Z,36.65
2023-04-08T06:39:43.414Z,34.48
2023-04-08T06:40:43.426Z,33.23
2023-04-08T06:41:43.433Z,33.30
2023-04-08T06:42:43.453Z,34.09
2023-04-08T06:43:43.444Z,34.92
2023-04-08T06:44:43.456Z,32.66
2023-04-08T06:45:43.491Z,26.71
2023-04-08T06:46:43.511Z,29.96
2023-04-08T06:47:43.535Z,30.04
2023-04-08T06:48:43.510Z,29.84
2023-04-08T06:49:43.535Z,25.25
2023-04-08T06:50:43.509Z,29.20
2023-04-08T06:51:43.590Z,28.75
2023-04-08T06:52:43.518Z,26.59
2023-04-08T06:53:43.543Z,26.65
2023-04-08T06:54:43.573Z,28.59
2023-04-08T06:55:43.589Z,25.00
2023-04-08T06:56:43.636Z,28.55
2023-04-08T06:57:43.690Z,29.35
2023-04-08T06:58:43.746Z,29.00
2023-04-08T06:59:43.757Z,31.40
2023-04-08T07:00:43.818Z,32.41
2023-04-08T07:01:44.052Z,30.19
2023-04-08T07:02:43.994Z,32.05
2023-04-08T07:03:44.086Z,31.70
2023-04-08T07:04:45.499Z,30.43
2023-04-08T07:05:44.014Z,26.94
2023-04-08T07:06:44.018Z,26.12
2023-04-08T07:07:43.994Z,30.51
2023-04-08T07:08:44.009Z,29.76
2023-04-08T07:09:43.983Z,26.40
2023-04-08T07:10:43.977Z,25.21
2023-04-08T07:11:43.992Z,27.39
2023-04-08T07:12:43.980Z,25.23
2023-04-08T07:13:43.966Z,26.78
2023-04-08T07:14:43.970Z,31.22
2023-04-08T07:15:43.961Z,30.21
2023-04-08T07:16:44.049Z,27.84
2023-04-08T07:17:43.974Z,25.00
2023-04-08T07:18:43.985Z,26.37
2023-04-08T07:19:43.924Z,25.98
2023-04-08T07:20:43.955Z,28.58
2023-04-08T07:21:43.924Z,27.81
2023-04-08T07:22:43.899Z,27.63
2023-04-08T07:23:43.916Z,27.62
2023-04-08T07:24:43.920Z,25.36
2023-04-08T07:25:43.895Z,32.00
2023-04-08T07:26:43.911Z,32.69
2023-04-08T07:27:43.889Z,38.55
2023-04-08T07:28:43.888Z,36.37
2023-04-08T07:29:43.888Z,29.43
2023-04-08T07:30:43.910Z,35.67
2023-04-08T07:31:43.850Z,26.53
2023-04-08T07:32:43.888Z,25.00
2023-04-08T07:33:43.851Z,30.98
2023-04-08T07:34:43.846Z,31.29
2023-04-08T07:35:43.841Z,40.25
2023-04-08T07:36:43.816Z,37.97
2023-04-08T07:37:43.823Z,36.03
2023-04-08T07:38:43.809Z,35.91
2023-04-08T07:39:43.799Z,35.38
2023-04-08T07:40:43.800Z,39.17
2023-04-08T07:41:43.797Z,34.58
2023-04-08T07:42:43.772Z,32.36
2023-04-08T07:43:43.765Z,31.25
2023-04-08T07:44:43.772Z,32.63
2023-04-08T07:45:43.809Z,30.84
2023-04-08T07:46:43.765Z,33.06
2023-04-08T07:47:43.762Z,30.56
2023-04-08T07:48:43.815Z,31.04
2023-04-08T07:49:43.866Z,26.62
2023-04-08T07:51:08.866Z,31.51
2023-04-08T07:51:44.909Z,31.57
2023-04-08T07:52:43.918Z,31.70
2023-04-08T07:53:43.895Z,27.41
2023-04-08T07:54:43.904Z,23.28
2023-04-08T07:55:43.921Z,15.08
2023-04-08T07:56:43.880Z,30.98
2023-04-08T07:57:43.927Z,29.42
2023-04-08T07:58:43.885Z,27.84
2023-04-08T07:59:43.933Z,33.30
2023-04-08T08:00:44.007Z,25.85
2023-04-08T08:01:44.072Z,25.00
2023-04-08T08:02:44.174Z,26.09
2023-04-08T08:03:44.360Z,26.74
2023-04-08T08:04:44.449Z,26.81
2023-04-08T08:05:44.278Z,30.91
2023-04-08T08:06:44.339Z,25.04
2023-04-08T08:07:44.384Z,27.97
2023-04-08T08:08:44.437Z,30.48
2023-04-08T08:09:44.504Z,34.47
2023-04-08T08:10:44.564Z,32.27
2023-04-08T08:11:44.619Z,29.22
2023-04-08T08:12:44.670Z,25.51
2023-04-08T08:13:44.713Z,26.48
2023-04-08T08:14:44.759Z,30.61
2023-04-08T08:15:44.827Z,32.88
2023-04-08T08:16:44.894Z,26.33
2023-04-08T08:17:45.013Z,26.72
2023-04-08T08:18:44.966Z,26.78
2023-04-08T08:19:45.001Z,30.22
2023-04-08T08:20:45.066Z,29.56
2023-04-08T08:21:45.108Z,25.00
2023-04-08T08:22:54.548Z,27.79
2023-04-08T08:23:46.159Z,28.00
2023-04-08T08:24:45.136Z,29.09
2023-04-08T08:25:45.126Z,30.24
2023-04-08T08:26:45.136Z,32.42
2023-04-08T08:27:45.140Z,38.96
2023-04-08T08:28:45.126Z,46.63
2023-04-08T08:29:45.116Z,41.05
2023-04-08T08:30:45.107Z,35.43
2023-04-08T08:31:45.168Z,48.08
2023-04-08T08:32:45.105Z,46.98
2023-04-08T08:33:45.074Z,43.45
2023-04-08T08:34:45.101Z,37.24
2023-04-08T08:35:45.176Z,37.43
2023-04-08T08:36:45.180Z,43.30
2023-04-08T08:37:45.200Z,36.71
2023-04-08T08:38:45.285Z,40.61
2023-04-08T08:39:45.269Z,50.16
2023-04-08T08:40:45.310Z,39.59
2023-04-08T08:41:45.337Z,41.73
2023-04-08T08:42:45.400Z,44.90
2023-04-08T08:43:45.420Z,46.71
2023-04-08T08:44:45.439Z,44.86
2023-04-08T08:45:45.507Z,42.11
2023-04-08T08:46:45.561Z,42.69
2023-04-08T08:47:45.589Z,35.32
2023-04-08T08:48:45.595Z,37.57
2023-04-08T08:49:45.613Z,39.79
2023-04-08T08:50:45.699Z,38.21
2023-04-08T08:51:45.698Z,44.80
2023-04-08T08:52:45.713Z,44.50
2023-04-08T08:53:45.800Z,40.65
2023-04-08T08:54:45.779Z,40.02
2023-04-08T08:56:45.813Z,42.07
2023-04-08T08:57:45.818Z,41.19
2023-04-08T08:58:45.863Z,38.36
2023-04-08T08:59:45.801Z,42.07
2023-04-08T09:00:45.803Z,40.20
2023-04-08T09:01:45.832Z,38.87
2023-04-08T09:02:45.991Z,41.08
2023-04-08T09:03:45.942Z,38.77
2023-04-08T09:04:45.940Z,37.88
2023-04-08T09:05:45.821Z,43.67
2023-04-08T09:06:45.763Z,41.52
2023-04-08T09:07:45.768Z,40.17
2023-04-08T09:08:45.717Z,34.24
2023-04-08T09:09:45.737Z,32.57
2023-04-08T09:10:45.723Z,30.75
2023-04-08T09:11:45.703Z,35.35
2023-04-08T09:12:45.756Z,30.20
2023-04-08T09:13:45.738Z,29.32
2023-04-08T09:14:45.759Z,28.04
2023-04-08T09:15:45.820Z,31.05
2023-04-08T09:16:45.838Z,27.79
2023-04-08T09:17:45.895Z,25.37
2023-04-08T09:18:45.864Z,26.67
2023-04-08T09:19:45.862Z,26.49
2023-04-08T09:20:45.906Z,27.31
2023-04-08T09:21:45.944Z,25.93
2023-04-08T09:22:45.934Z,32.21
2023-04-08T09:23:45.989Z,27.95
2023-04-08T09:24:45.979Z,25.19
2023-04-08T09:25:46.020Z,25.00
2023-04-08T09:26:46.028Z,25.79
2023-04-08T09:27:46.051Z,28.93
2023-04-08T09:28:46.078Z,29.38
2023-04-08T09:29:46.128Z,25.00
2023-04-08T09:30:46.152Z,26.69
2023-04-08T09:31:46.189Z,29.34
2023-04-08T09:32:46.183Z,25.00
2023-04-08T09:33:46.227Z,26.83
2023-04-08T09:34:46.253Z,26.40
2023-04-08T09:35:46.289Z,27.85
2023-04-08T09:36:46.308Z,28.02
2023-04-08T09:37:46.315Z,25.00
2023-04-08T09:38:46.344Z,27.01
2023-04-08T09:39:46.375Z,29.31
2023-04-08T09:40:46.400Z,25.77
2023-04-08T09:41:46.426Z,25.69
2023-04-08T09:42:46.435Z,25.86
2023-04-08T09:43:46.471Z,26.33
2023-04-08T09:44:46.491Z,25.95
2023-04-08T09:45:46.520Z,35.43
2023-04-08T09:46:46.539Z,38.22
2023-04-08T09:47:46.627Z,25.00
2023-04-08T09:48:46.611Z,26.41
2023-04-08T09:49:46.639Z,24.43
2023-04-08T09:50:46.654Z,28.29
2023-04-08T09:51:46.684Z,30.92
2023-04-08T09:52:46.720Z,28.34
2023-04-08T09:53:46.747Z,28.23
2023-04-08T09:54:46.772Z,25.82
2023-04-08T09:55:46.816Z,30.97
2023-04-08T09:56:46.852Z,35.57
2023-04-08T09:57:46.870Z,33.23
2023-04-08T09:58:46.882Z,27.05
2023-04-08T09:59:46.929Z,27.16
2023-04-08T10:00:46.976Z,27.16
2023-04-08T10:01:46.998Z,28.77
2023-04-08T10:02:47.155Z,30.42
2023-04-08T10:03:47.089Z,28.83
2023-04-08T10:04:47.076Z,25.88
2023-04-08T10:05:47.087Z,30.32
2023-04-08T10:06:47.102Z,31.90
2023-04-08T10:07:47.140Z,32.59
2023-04-08T10:08:47.169Z,33.01
2023-04-08T10:09:47.193Z,37.80
2023-04-08T10:10:47.914Z,25.33
2023-04-08T10:11:47.237Z,25.03
2023-04-08T10:12:47.246Z,28.78
2023-04-08T10:13:47.301Z,26.53
2023-04-08T10:14:47.301Z,30.26
2023-04-08T10:15:47.335Z,34.33
2023-04-08T10:16:47.396Z,35.45
2023-04-08T10:17:47.406Z,35.01
2023-04-08T10:18:47.434Z,34.17
2023-04-08T10:19:47.451Z,46.30
2023-04-08T10:20:47.489Z,35.81
2023-04-08T10:21:47.539Z,33.50
2023-04-08T10:22:47.560Z,25.52
2023-04-08T10:23:47.654Z,38.41
2023-04-08T10:24:47.629Z,33.99
2023-04-08T10:25:47.739Z,31.20
2023-04-08T10:26:47.794Z,29.35
2023-04-08T10:27:47.736Z,26.92
2023-04-08T10:28:47.776Z,33.46
2023-04-08T10:29:47.820Z,34.17
2023-04-08T10:30:47.859Z,35.06
2023-04-08T10:31:47.908Z,41.80
2023-04-08T10:32:47.942Z,25.00
2023-04-08T10:33:48.137Z,34.00
2023-04-08T10:34:48.012Z,27.49
2023-04-08T10:35:48.083Z,27.04
2023-04-08T10:36:48.088Z,25.00
2023-04-08T10:37:48.123Z,41.64
2023-04-08T10:38:48.171Z,44.80
2023-04-08T10:39:48.197Z,42.63
2023-04-08T10:40:48.277Z,49.66
2023-04-08T10:41:48.285Z,51.90
2023-04-08T10:42:48.319Z,41.00
2023-04-08T10:43:48.474Z,40.78
2023-04-08T10:44:48.417Z,32.15
2023-04-08T10:45:48.796Z,34.85
2023-04-08T10:46:48.491Z,32.09
2023-04-08T10:47:48.577Z,33.56
2023-04-08T10:48:48.597Z,25.00
2023-04-08T10:49:48.633Z,24.87
2023-04-08T10:50:48.684Z,33.07
2023-04-08T10:51:48.733Z,33.15
2023-04-08T10:52:48.780Z,40.47
2023-04-08T10:53:48.915Z,34.16
2023-04-08T10:54:48.870Z,33.62
2023-04-08T10:55:48.916Z,30.03
2023-04-08T10:56:48.993Z,34.29
2023-04-08T10:57:49.032Z,30.05
2023-04-08T10:58:49.082Z,25.08
2023-04-08T10:59:49.132Z,33.47
2023-04-08T11:00:49.180Z,34.88
2023-04-08T11:01:49.261Z,28.79
2023-04-08T11:02:49.302Z,39.24
2023-04-08T11:03:49.421Z,41.72
2023-04-08T11:04:49.361Z,39.35
2023-04-08T11:05:49.404Z,42.92
2023-04-08T11:06:49.471Z,45.54
2023-04-08T11:07:49.501Z,45.49
2023-04-08T11:08:49.533Z,46.38
2023-04-08T11:09:49.604Z,42.15
2023-04-08T11:10:49.646Z,42.59
2023-04-08T11:11:49.726Z,34.31
2023-04-08T11:12:49.740Z,38.79
2023-04-08T11:13:53.762Z,29.41
2023-04-08T11:14:49.789Z,29.45
2023-04-08T11:15:49.771Z,28.31
2023-04-08T11:16:49.809Z,31.75
2023-04-08T11:17:49.789Z,31.32
2023-04-08T11:18:49.746Z,35.46
2023-04-08T11:19:49.744Z,37.97
2023-04-08T11:20:49.727Z,37.32
2023-04-08T11:21:49.724Z,37.01
2023-04-08T11:22:49.722Z,36.49
2023-04-08T11:23:50.079Z,33.63
2023-04-08T11:24:49.738Z,28.35
2023-04-08T11:25:49.709Z,25.13
2023-04-08T11:26:49.698Z,27.46
2023-04-08T11:27:49.697Z,29.92
2023-04-08T11:28:49.679Z,47.10
2023-04-08T11:29:49.667Z,36.83
2023-04-08T11:30:49.711Z,34.01
2023-04-08T11:31:49.665Z,30.56
2023-04-08T11:32:49.699Z,30.27
2023-04-08T11:33:49.948Z,41.92
2023-04-08T11:34:49.651Z,37.92
2023-04-08T11:35:49.691Z,45.32
2023-04-08T11:36:49.707Z,49.68
2023-04-08T11:37:49.797Z,41.39
2023-04-08T11:38:49.806Z,47.06
2023-04-08T11:39:49.832Z,51.02
2023-04-08T11:40:49.880Z,51.20
2023-04-08T11:41:49.920Z,54.01
2023-04-08T11:42:49.973Z,57.80
2023-04-08T11:43:50.137Z,43.01
2023-04-08T11:44:50.026Z,47.28
2023-04-08T11:45:50.079Z,52.80
2023-04-08T11:46:50.176Z,46.65
2023-04-08T11:47:50.196Z,49.69
2023-04-08T11:48:50.201Z,55.93
2023-04-08T11:49:50.237Z,47.07
2023-04-08T11:50:50.297Z,37.13
2023-04-08T11:51:50.339Z,45.70
2023-04-08T11:52:50.373Z,41.13
2023-04-08T11:53:50.675Z,43.42
2023-04-08T11:54:50.457Z,49.19
2023-04-08T11:55:50.517Z,43.23
2023-04-08T11:56:50.559Z,45.31
2023-04-08T11:57:50.585Z,48.73
2023-04-08T11:58:50.655Z,47.33
2023-04-08T11:59:50.682Z,48.22
2023-04-08T12:00:50.706Z,47.33
2023-04-08T12:01:50.790Z,56.39
2023-04-08T12:02:50.897Z,45.20
2023-04-08T12:03:51.281Z,36.48
2023-04-08T12:04:50.888Z,43.32
2023-04-08T12:05:50.897Z,50.74
2023-04-08T12:06:50.947Z,54.95
2023-04-08T12:07:50.967Z,57.80
2023-04-08T12:08:51.024Z,60.92
2023-04-08T12:09:51.060Z,58.89
2023-04-08T12:10:51.091Z,55.00
2023-04-08T12:11:51.139Z,48.53
2023-04-08T12:12:51.159Z,54.37
2023-04-08T12:13:51.704Z,45.75
2023-04-08T12:14:51.249Z,55.55
2023-04-08T12:15:51.290Z,42.05
2023-04-08T12:16:51.329Z,44.86
2023-04-08T12:17:51.473Z,52.56
2023-04-08T12:18:51.392Z,52.41
2023-04-08T12:19:51.435Z,44.90
2023-04-08T12:20:51.487Z,53.63
2023-04-08T12:21:51.524Z,47.87
2023-04-08T12:22:51.542Z,49.51
2023-04-08T12:23:51.930Z,49.21
2023-04-08T12:24:51.613Z,51.35
2023-04-08T12:25:51.655Z,57.53
2023-04-08T12:26:51.688Z,57.03
2023-04-08T12:27:51.725Z,49.94
2023-04-08T12:28:51.817Z,47.95
2023-04-08T12:29:51.828Z,40.66
2023-04-08T12:30:51.885Z,48.18
2023-04-08T12:31:51.953Z,47.31
2023-04-08T12:32:51.953Z,39.68
2023-04-08T12:33:52.190Z,46.75
2023-04-08T12:34:52.045Z,44.31
2023-04-08T12:35:52.158Z,42.60
2023-04-08T12:36:52.128Z,32.64
2023-04-08T12:37:52.185Z,31.93
2023-04-08T12:38:52.443Z,45.88
2023-04-08T12:39:52.257Z,37.45
2023-04-08T12:40:52.314Z,29.28
2023-04-08T12:41:52.378Z,39.09
2023-04-08T12:42:52.401Z,30.63
2023-04-08T12:43:52.447Z,32.29
2023-04-08T12:44:52.485Z,29.08
2023-04-08T12:45:52.539Z,31.29
2023-04-08T12:46:52.603Z,34.51
2023-04-08T12:47:52.765Z,39.34
2023-04-08T12:49:03.351Z,43.67
2023-04-08T12:49:53.658Z,36.05
2023-04-08T12:50:52.638Z,44.52
2023-04-08T12:51:52.643Z,43.77
2023-04-08T12:52:52.639Z,44.00